createdAt,value
2022-11-29T00:04:59.415Z,33.95
2022-11-29T00:10:01.175Z,39.60
2022-11-29T00:15:03.257Z,34.40
2022-11-29T00:20:05.936Z,32.85
2022-11-29T00:25:08.126Z,36.40
2022-11-29T00:30:10.248Z,35.60
2022-11-29T00:35:12.668Z,32.70
2022-11-29T00:40:14.453Z,29.42
2022-11-29T00:45:16.406Z,34.33
2022-11-29T00:50:18.322Z,34.15
2022-11-29T00:55:20.249Z,44.15
2022-11-29T01:00:22.056Z,39.15
2022-11-29T01:05:23.967Z,34.30
2022-11-29T01:10:26.200Z,33.53
2022-11-29T01:15:28.511Z,31.95
2022-11-29T01:20:30.439Z,34.03
2022-11-29T01:25:32.423Z,29.40
2022-11-29T01:30:34.394Z,29.40
2022-11-29T01:35:36.253Z,30.98
2022-11-29T01:40:38.022Z,29.52
2022-11-29T01:45:40.370Z,34.95
2022-11-29T01:50:43.126Z,30.75
2022-11-29T01:55:51.036Z,32.45
2022-11-29T02:00:52.973Z,29.77
2022-11-29T02:05:56.386Z,31.50
2022-11-29T02:11:07.189Z,23.75
2022-11-29T02:21:24.204Z,34.08
2022-11-29T02:26:38.051Z,23.45
2022-11-29T02:31:55.015Z,25.27
2022-11-29T02:37:15.501Z,25.52
2022-11-29T02:42:26.240Z,17.25
2022-11-29T02:52:43.412Z,36.00
2022-11-29T02:58:06.666Z,22.45
2022-11-29T03:03:37.008Z,35.05
2022-11-29T03:08:52.690Z,25.70
2022-11-29T03:14:17.449Z,36.08
2022-11-29T03:19:29.669Z,43.25
2022-11-29T03:24:37.419Z,36.47
2022-11-29T03:29:59.712Z,53.70
2022-11-29T03:35:11.801Z,60.17
2022-11-29T03:40:19.057Z,36.83
2022-11-29T03:45:25.141Z,33.22
2022-11-29T03:50:34.849Z,38.58
2022-11-29T03:56:01.795Z,26.92
2022-11-29T04:01:29.042Z,29.02
2022-11-29T04:07:05.425Z,29.67
2022-11-29T04:12:31.930Z,30.52
2022-11-29T04:17:33.829Z,29.20
2022-11-29T04:23:00.386Z,31.85
2022-11-29T04:28:20.854Z,27.98
2022-11-29T04:33:54.763Z,21.17
2022-11-29T04:39:23.666Z,28.35
2022-11-29T04:44:34.372Z,28.65
2022-11-29T04:49:36.100Z,23.45
2022-11-29T04:54:49.186Z,26.92
2022-11-29T05:00:09.961Z,26.00
2022-11-29T05:10:50.471Z,20.75
2022-11-29T05:16:26.039Z,21.70
2022-11-29T05:21:39.545Z,22.08
2022-11-29T05:27:09.906Z,22.77
2022-11-29T05:32:29.772Z,19.20
2022-11-29T05:37:50.297Z,20.73
2022-11-29T05:43:08.902Z,18.33
2022-11-29T05:48:50.883Z,23.63
2022-11-29T05:54:24.054Z,23.13
2022-11-29T05:59:28.765Z,28.83
2022-11-29T06:05:09.115Z,22.88
2022-11-29T06:10:18.962Z,18.88
2022-11-29T06:15:48.652Z,27.60
2022-11-29T06:20:57.158Z,24.98
2022-11-29T06:26:29.164Z,20.98
2022-11-29T06:31:43.445Z,24.90
2022-11-29T06:36:51.736Z,22.27
2022-11-29T06:41:53.579Z,20.08
2022-11-29T06:47:08.976Z,24.30
2022-11-29T06:52:28.292Z,26.50
2022-11-29T06:58:32.846Z,20.30
2022-11-29T07:04:13.884Z,22.50
2022-11-29T07:09:21.913Z,24.05
2022-11-29T07:14:23.886Z,21.23
2022-11-29T07:19:45.940Z,23.98
2022-11-29T07:25:04.369Z,22.08
2022-11-29T07:30:41.519Z,24.23
2022-11-29T07:35:50.348Z,24.98
2022-11-29T07:41:00.859Z,25.52
2022-11-29T07:46:02.806Z,21.95
2022-11-29T07:51:04.804Z,21.30
2022-11-29T07:56:06.992Z,26.10
2022-11-29T08:01:09.049Z,21.15
2022-11-29T08:06:11.036Z,28.58
2022-11-29T08:11:13.291Z,30.48
2022-11-29T08:16:18.714Z,31.67
2022-11-29T08:21:20.668Z,29.08
2022-11-29T08:26:25.580Z,24.98
2022-11-29T08:31:30.029Z,28.67
2022-11-29T08:36:32.120Z,28.10
2022-11-29T08:41:34.116Z,29.25
2022-11-29T08:46:54.321Z,31.25
2022-11-29T08:52:16.262Z,18.25
2022-11-29T08:57:39.364Z,26.08
2022-11-29T09:02:39.960Z,24.63
2022-11-29T09:07:42.003Z,26.67
2022-11-29T09:12:44.828Z,26.98
2022-11-29T09:17:46.803Z,25.10
2022-11-29T09:22:48.543Z,21.55
2022-11-29T09:27:50.332Z,26.88
2022-11-29T09:32:52.083Z,27.25
2022-11-29T09:37:53.911Z,26.17
2022-11-29T09:43:04.497Z,32.15
2022-11-29T09:48:16.286Z,22.83
2022-11-29T09:53:29.897Z,25.40
2022-11-29T09:58:40.505Z,28.45
2022-11-29T10:03:46.469Z,25.10
2022-11-29T10:08:51.656Z,28.92
2022-11-29T10:13:59.963Z,29.25
2022-11-29T10:19:15.542Z,30.20
2022-11-29T10:24:21.165Z,31.33
2022-11-29T10:29:23.709Z,29.10
2022-11-29T10:34:27.078Z,31.67
2022-11-29T10:39:44.104Z,25.65
2022-11-29T10:44:46.029Z,27.73
2022-11-29T10:49:48.724Z,31.38
2022-11-29T10:54:55.808Z,29.55
2022-11-29T11:00:10.972Z,33.78
2022-11-29T11:05:19.481Z,32.05
2022-11-29T11:10:27.205Z,30.55
2022-11-29T11:15:31.586Z,25.58
2022-11-29T11:20:41.971Z,28.55
2022-11-29T11:25:45.730Z,19.85
2022-11-29T11:31:00.862Z,27.75
2022-11-29T11:36:29.131Z,23.02
2022-11-29T11:41:53.712Z,30.85
2022-11-29T11:46:56.135Z,24.25
2022-11-29T11:51:59.929Z,25.38
2022-11-29T11:57:01.699Z,21.75
2022-11-29T12:02:12.280Z,23.75
2022-11-29T12:07:45.155Z,15.10
2022-11-29T12:12:50.392Z,29.50
2022-11-29T12:18:06.778Z,41.50
2022-11-29T12:23:14.705Z,46.10
2022-11-29T12:28:20.646Z,45.60
2022-11-29T12:33:36.058Z,53.33
2022-11-29T12:38:59.774Z,55.95
2022-11-29T12:44:05.047Z,41.70
2022-11-29T12:49:23.636Z,52.25
2022-11-29T12:54:49.387Z,38.03
2022-11-29T13:00:20.914Z,41.28
2022-11-29T13:05:36.916Z,45.50
2022-11-29T13:10:44.527Z,38.53
2022-11-29T13:16:20.543Z,46.00
2022-11-29T13:21:43.992Z,41.15
2022-11-29T13:26:46.790Z,38.50
2022-11-29T13:31:49.691Z,38.45
2022-11-29T13:36:59.562Z,36.38
2022-11-29T13:42:31.069Z,37.37
2022-11-29T13:47:33.038Z,41.72
2022-11-29T13:52:40.768Z,38.28
2022-11-29T13:58:15.500Z,38.15
2022-11-29T14:03:22.045Z,38.97
2022-11-29T14:08:47.728Z,34.35
2022-11-29T14:14:03.316Z,41.20
2022-11-29T14:19:13.082Z,39.38
2022-11-29T14:24:33.277Z,41.17
2022-11-29T14:29:50.578Z,47.45
2022-11-29T14:35:06.613Z,39.75
2022-11-29T14:40:23.172Z,33.42
2022-11-29T14:45:31.555Z,33.05
2022-11-29T14:50:33.271Z,37.17
2022-11-29T14:55:38.682Z,41.33
2022-11-29T15:00:43.927Z,37.35
2022-11-29T15:05:56.219Z,38.60
2022-11-29T15:11:22.710Z,29.50
2022-11-29T15:16:37.262Z,30.92
2022-11-29T15:22:11.280Z,34.20
2022-11-29T15:27:13.296Z,39.83
2022-11-29T15:32:29.583Z,34.97
2022-11-29T15:37:34.116Z,38.42
2022-11-29T15:42:43.653Z,37.78
2022-11-29T15:47:45.402Z,41.38
2022-11-29T15:52:47.206Z,32.42
2022-11-29T15:57:53.723Z,30.58
2022-11-29T16:03:00.237Z,43.53
2022-11-29T16:08:06.033Z,37.42
2022-11-29T16:13:33.954Z,34.53
2022-11-29T16:18:37.646Z,41.33
2022-11-29T16:23:44.213Z,35.45
2022-11-29T16:28:48.767Z,33.33
2022-11-29T16:33:52.586Z,36.13
2022-11-29T16:39:01.383Z,31.02
2022-11-29T16:44:04.708Z,34.42
2022-11-29T16:49:36.125Z,29.85
2022-11-29T16:54:38.060Z,32.15
2022-11-29T16:59:40.002Z,35.97
2022-11-29T17:04:42.462Z,33.38
2022-11-29T17:09:44.716Z,31.17
2022-11-29T17:14:46.857Z,29.30
2022-11-29T17:19:48.873Z,32.20
2022-11-29T17:24:50.914Z,26.30
2022-11-29T17:29:52.863Z,29.05
2022-11-29T17:34:54.771Z,25.45
2022-11-29T17:39:57.038Z,25.60
2022-11-29T17:44:58.801Z,24.00
2022-11-29T17:50:00.591Z,30.10
2022-11-29T17:55:02.332Z,36.95
2022-11-29T18:00:06.895Z,29.05
2022-11-29T18:05:09.091Z,27.08
2022-11-29T18:10:11.044Z,32.40
2022-11-29T18:15:12.805Z,29.30
2022-11-29T18:20:14.761Z,24.40
2022-11-29T18:25:38.021Z,39.30
2022-11-29T18:30:38.477Z,31.27
2022-11-29T18:35:40.417Z,29.67
2022-11-29T18:40:45.124Z,30.45
2022-11-29T18:45:46.927Z,35.00
2022-11-29T18:50:48.911Z,42.63
2022-11-29T18:56:07.210Z,34.78
2022-11-29T19:01:17.781Z,38.00
2022-11-29T19:06:22.539Z,32.47
2022-11-29T19:11:27.511Z,29.52
2022-11-29T19:16:31.378Z,34.20
2022-11-29T19:21:34.737Z,44.58
2022-11-29T19:26:36.686Z,30.58
2022-11-29T19:31:39.700Z,39.63
2022-11-29T19:36:43.680Z,34.42
2022-11-29T19:41:47.775Z,44.90
2022-11-29T19:46:49.637Z,33.92
2022-11-29T19:51:51.528Z,34.05
2022-11-29T19:56:55.719Z,43.83
2022-11-29T20:01:59.590Z,45.20
2022-11-29T20:07:03.058Z,58.30
2022-11-29T20:12:11.942Z,52.67
2022-11-29T20:17:13.758Z,62.00
2022-11-29T20:22:15.986Z,53.58
2022-11-29T20:27:17.862Z,64.60
2022-11-29T20:32:20.106Z,67.60
2022-11-29T20:37:31.094Z,67.90
2022-11-29T20:42:48.004Z,79.28
2022-11-29T20:48:16.144Z,78.70
2022-11-29T20:53:38.171Z,69.57
2022-11-29T20:58:40.958Z,71.68
2022-11-29T21:03:42.740Z,69.38
2022-11-29T21:08:44.749Z,60.13
2022-11-29T21:13:47.690Z,68.90
2022-11-29T21:18:49.848Z,57.47
2022-11-29T21:24:10.109Z,60.78
2022-11-29T21:29:22.942Z,45.35
2022-11-29T21:34:24.808Z,61.63
2022-11-29T21:39:34.226Z,87.28
2022-11-29T21:44:36.087Z,68.20
2022-11-29T21:49:37.907Z,86.90
2022-11-29T21:54:40.486Z,69.05
2022-11-29T21:59:42.308Z,78.57
2022-11-29T22:04:44.200Z,95.88
2022-11-29T22:09:48.703Z,89.47
2022-11-29T22:14:50.898Z,110.88
2022-11-29T22:19:52.700Z,100.35
2022-11-29T22:24:54.448Z,89.55
2022-11-29T22:29:56.190Z,82.95
2022-11-29T22:34:58.089Z,83.45
2022-11-29T22:39:59.918Z,74.50
2022-11-29T22:45:04.116Z,74.18
2022-11-29T22:50:06.406Z,74.03
2022-11-29T22:55:08.628Z,75.25
2022-11-29T23:00:11.766Z,77.78
2022-11-29T23:05:13.531Z,69.85
2022-11-29T23:10:15.382Z,70.47
2022-11-29T23:15:17.321Z,65.50
2022-11-29T23:20:19.526Z,66.18
2022-11-29T23:25:21.307Z,72.90
2022-11-29T23:30:23.239Z,64.95
2022-11-29T23:35:25.007Z,65.82
2022-11-29T23:40:26.887Z,55.03
2022-11-29T23:45:28.933Z,76.00
2022-11-29T23:50:30.713Z,66.82
2022-11-29T23:55:32.468Z,68.50
